sensor_id;sensor_type;location;lat;lon;timestamp;P1;durP1;ratioP1;P2;durP2;ratioP2
71969;SDS011;59838;52.152;5.436;2023-09-18T00:00:14;19.48;;;13.98;;
71969;SDS011;59838;52.152;5.436;2023-09-18T00:02:41;22.73;;;12.93;;
71969;SDS011;59838;52.152;5.436;2023-09-18T00:05:08;19.20;;;13.15;;
71969;SDS011;59838;52.152;5.436;2023-09-18T00:07:35;19.10;;;12.82;;
71969;SDS011;59838;52.152;5.436;2023-09-18T00:10:01;19.95;;;12.50;;
71969;SDS011;59838;52.152;5.436;2023-09-18T00:12:28;23.52;;;11.98;;
71969;SDS011;59838;52.152;5.436;2023-09-18T00:14:54;18.95;;;13.30;;
71969;SDS011;59838;52.152;5.436;2023-09-18T00:17:21;22.65;;;13.55;;
71969;SDS011;59838;52.152;5.436;2023-09-18T00:19:50;17.98;;;12.70;;
71969;SDS011;59838;52.152;5.436;2023-09-18T00:22:17;21.23;;;12.43;;
71969;SDS011;59838;52.152;5.436;2023-09-18T00:24:44;19.83;;;12.55;;
71969;SDS011;59838;52.152;5.436;2023-09-18T00:27:11;18.58;;;13.00;;
71969;SDS011;59838;52.152;5.436;2023-09-18T00:29:37;19.40;;;13.63;;
71969;SDS011;59838;52.152;5.436;2023-09-18T00:32:04;22.00;;;13.35;;
71969;SDS011;59838;52.152;5.436;2023-09-18T00:34:31;23.00;;;13.70;;
71969;SDS011;59838;52.152;5.436;2023-09-18T00:36:58;18.35;;;11.90;;
71969;SDS011;59838;52.152;5.436;2023-09-18T00:39:28;17.92;;;12.95;;
71969;SDS011;59838;52.152;5.436;2023-09-18T00:41:54;17.33;;;12.48;;
71969;SDS011;59838;52.152;5.436;2023-09-18T00:44:21;20.30;;;12.60;;
71969;SDS011;59838;52.152;5.436;2023-09-18T00:46:48;16.60;;;13.20;;
71969;SDS011;59838;52.152;5.436;2023-09-18T00:49:17;22.13;;;12.50;;
71969;SDS011;59838;52.152;5.436;2023-09-18T00:51:45;15.48;;;11.93;;
71969;SDS011;59838;52.152;5.436;2023-09-18T00:54:14;19.13;;;12.75;;
71969;SDS011;59838;52.152;5.436;2023-09-18T00:56:44;19.40;;;12.45;;
71969;SDS011;59838;52.152;5.436;2023-09-18T00:59:14;18.25;;;12.35;;
71969;SDS011;59838;52.152;5.436;2023-09-18T01:01:41;17.23;;;11.93;;
71969;SDS011;59838;52.152;5.436;2023-09-18T01:04:08;20.45;;;12.10;;
71969;SDS011;59838;52.152;5.436;2023-09-18T01:06:36;17.17;;;12.25;;
71969;SDS011;59838;52.152;5.436;2023-09-18T01:09:02;17.95;;;12.43;;
71969;SDS011;59838;52.152;5.436;2023-09-18T01:14:25;15.80;;;11.32;;
71969;SDS011;59838;52.152;5.436;2023-09-18T01:17:00;16.50;;;11.55;;
71969;SDS011;59838;52.152;5.436;2023-09-18T01:19:37;18.50;;;13.20;;
71969;SDS011;59838;52.152;5.436;2023-09-18T01:22:09;16.30;;;12.45;;
71969;SDS011;59838;52.152;5.436;2023-09-18T01:24:37;21.97;;;12.03;;
71969;SDS011;59838;52.152;5.436;2023-09-18T01:27:05;22.75;;;12.98;;
71969;SDS011;59838;52.152;5.436;2023-09-18T01:29:34;15.20;;;12.07;;
71969;SDS011;59838;52.152;5.436;2023-09-18T01:32:00;16.38;;;11.13;;
71969;SDS011;59838;52.152;5.436;2023-09-18T01:34:34;20.98;;;13.02;;
71969;SDS011;59838;52.152;5.436;2023-09-18T01:37:03;15.23;;;11.30;;
71969;SDS011;59838;52.152;5.436;2023-09-18T01:39:32;17.17;;;11.77;;
71969;SDS011;59838;52.152;5.436;2023-09-18T01:42:01;16.60;;;11.98;;
71969;SDS011;59838;52.152;5.436;2023-09-18T01:44:30;18.75;;;11.95;;
71969;SDS011;59838;52.152;5.436;2023-09-18T01:46:58;19.25;;;12.25;;
71969;SDS011;59838;52.152;5.436;2023-09-18T01:52:04;16.63;;;11.98;;
71969;SDS011;59838;52.152;5.436;2023-09-18T01:54:32;17.35;;;12.15;;
71969;SDS011;59838;52.152;5.436;2023-09-18T01:56:59;15.45;;;11.38;;
71969;SDS011;59838;52.152;5.436;2023-09-18T01:59:26;20.08;;;11.32;;
71969;SDS011;59838;52.152;5.436;2023-09-18T02:01:53;15.07;;;10.93;;
71969;SDS011;59838;52.152;5.436;2023-09-18T02:04:22;13.93;;;9.85;;
71969;SDS011;59838;52.152;5.436;2023-09-18T02:07:08;13.07;;;10.02;;
71969;SDS011;59838;52.152;5.436;2023-09-18T04:39:20;27.75;;;14.20;;
71969;SDS011;59838;52.152;5.436;2023-09-18T04:41:47;22.95;;;13.00;;
71969;SDS011;59838;52.152;5.436;2023-09-18T04:44:14;22.25;;;13.45;;
71969;SDS011;59838;52.152;5.436;2023-09-18T04:46:40;15.87;;;11.73;;
71969;SDS011;59838;52.152;5.436;2023-09-18T04:49:09;21.60;;;11.73;;
71969;SDS011;59838;52.152;5.436;2023-09-18T04:51:37;21.55;;;11.98;;
71969;SDS011;59838;52.152;5.436;2023-09-18T04:54:05;17.95;;;12.20;;
71969;SDS011;59838;52.152;5.436;2023-09-18T04:56:32;17.33;;;11.90;;
71969;SDS011;59838;52.152;5.436;2023-09-18T04:58:59;17.67;;;10.83;;
71969;SDS011;59838;52.152;5.436;2023-09-18T05:01:26;19.10;;;11.02;;
71969;SDS011;59838;52.152;5.436;2023-09-18T05:03:53;33.88;;;12.68;;
71969;SDS011;59838;52.152;5.436;2023-09-18T05:06:20;30.77;;;12.55;;
71969;SDS011;59838;52.152;5.436;2023-09-18T05:08:47;21.92;;;11.25;;
71969;SDS011;59838;52.152;5.436;2023-09-18T05:11:14;27.10;;;11.57;;
71969;SDS011;59838;52.152;5.436;2023-09-18T05:13:40;19.30;;;10.55;;
71969;SDS011;59838;52.152;5.436;2023-09-18T05:16:07;23.08;;;9.95;;
71969;SDS011;59838;52.152;5.436;2023-09-18T05:18:33;13.38;;;7.90;;
71969;SDS011;59838;52.152;5.436;2023-09-18T05:21:00;13.73;;;8.55;;
71969;SDS011;59838;52.152;5.436;2023-09-18T05:23:28;15.43;;;7.67;;
71969;SDS011;59838;52.152;5.436;2023-09-18T05:25:56;7.85;;;5.60;;
71969;SDS011;59838;52.152;5.436;2023-09-18T05:28:22;8.18;;;5.65;;
71969;SDS011;59838;52.152;5.436;2023-09-18T05:30:49;12.63;;;5.53;;
71969;SDS011;59838;52.152;5.436;2023-09-18T05:33:15;12.60;;;5.38;;
71969;SDS011;59838;52.152;5.436;2023-09-18T05:35:43;9.73;;;5.20;;
71969;SDS011;59838;52.152;5.436;2023-09-18T05:38:11;8.00;;;4.07;;
71969;SDS011;59838;52.152;5.436;2023-09-18T05:40:40;6.75;;;3.92;;
71969;SDS011;59838;52.152;5.436;2023-09-18T05:43:07;9.82;;;3.97;;
71969;SDS011;59838;52.152;5.436;2023-09-18T05:45:34;5.97;;;3.90;;
71969;SDS011;59838;52.152;5.436;2023-09-18T05:48:01;6.97;;;3.50;;
71969;SDS011;59838;52.152;5.436;2023-09-18T05:50:31;5.07;;;3.60;;
71969;SDS011;59838;52.152;5.436;2023-09-18T05:52:58;6.55;;;4.40;;
71969;SDS011;59838;52.152;5.436;2023-09-18T05:55:26;9.32;;;4.00;;
71969;SDS011;59838;52.152;5.436;2023-09-18T05:57:53;6.30;;;4.55;;
71969;SDS011;59838;52.152;5.436;2023-09-18T06:00:21;7.73;;;3.97;;
71969;SDS011;59838;52.152;5.436;2023-09-18T06:02:48;6.75;;;4.50;;
71969;SDS011;59838;52.152;5.436;2023-09-18T06:05:15;9.18;;;4.85;;
71969;SDS011;59838;52.152;5.436;2023-09-18T06:07:42;11.27;;;4.90;;
71969;SDS011;59838;52.152;5.436;2023-09-18T06:10:10;8.98;;;4.70;;
71969;SDS011;59838;52.152;5.436;2023-09-18T06:12:40;8.33;;;4.83;;
71969;SDS011;59838;52.152;5.436;2023-09-18T06:15:07;7.82;;;4.50;;
71969;SDS011;59838;52.152;5.436;2023-09-18T06:17:38;6.35;;;5.10;;
71969;SDS011;59838;52.152;5.436;2023-09-18T06:20:07;8.15;;;5.38;;
71969;SDS011;59838;52.152;5.436;2023-09-18T06:22:39;7.13;;;4.93;;
71969;SDS011;59838;52.152;5.436;2023-09-18T06:25:07;6.50;;;5.03;;
71969;SDS011;59838;52.152;5.436;2023-09-18T06:27:37;11.25;;;5.80;;
71969;SDS011;59838;52.152;5.436;2023-09-18T06:30:04;10.05;;;5.68;;
71969;SDS011;59838;52.152;5.436;2023-09-18T06:32:32;14.40;;;6.80;;
71969;SDS011;59838;52.152;5.436;2023-09-18T06:34:59;8.48;;;6.15;;
71969;SDS011;59838;52.152;5.436;2023-09-18T06:37:26;11.63;;;5.87;;
71969;SDS011;59838;52.152;5.436;2023-09-18T06:39:53;12.98;;;5.95;;
71969;SDS011;59838;52.152;5.436;2023-09-18T06:42:19;10.55;;;6.15;;
71969;SDS011;59838;52.152;5.436;2023-09-18T06:44:46;8.93;;;6.75;;
71969;SDS011;59838;52.152;5.436;2023-09-18T06:47:13;13.88;;;6.05;;
71969;SDS011;59838;52.152;5.436;2023-09-18T06:49:41;7.67;;;6.13;;
71969;SDS011;59838;52.152;5.436;2023-09-18T06:52:11;12.07;;;5.57;;
71969;SDS011;59838;52.152;5.436;2023-09-18T06:54:39;9.43;;;5.75;;
71969;SDS011;59838;52.152;5.436;2023-09-18T06:57:05;8.63;;;5.85;;
71969;SDS011;59838;52.152;5.436;2023-09-18T06:59:32;9.55;;;6.95;;
71969;SDS011;59838;52.152;5.436;2023-09-18T07:02:00;6.70;;;5.97;;
71969;SDS011;59838;52.152;5.436;2023-09-18T07:04:27;13.68;;;6.18;;
71969;SDS011;59838;52.152;5.436;2023-09-18T07:06:54;10.48;;;6.38;;
71969;SDS011;59838;52.152;5.436;2023-09-18T07:09:22;8.27;;;6.65;;
71969;SDS011;59838;52.152;5.436;2023-09-18T07:11:49;11.55;;;5.78;;
71969;SDS011;59838;52.152;5.436;2023-09-18T07:14:17;13.00;;;6.83;;
71969;SDS011;59838;52.152;5.436;2023-09-18T07:16:43;7.53;;;5.90;;
71969;SDS011;59838;52.152;5.436;2023-09-18T07:19:10;12.23;;;6.10;;
71969;SDS011;59838;52.152;5.436;2023-09-18T07:21:43;6.93;;;6.20;;
71969;SDS011;59838;52.152;5.436;2023-09-18T07:24:10;12.02;;;6.95;;
71969;SDS011;59838;52.152;5.436;2023-09-18T07:26:45;10.30;;;6.53;;
71969;SDS011;59838;52.152;5.436;2023-09-18T07:29:13;11.07;;;6.70;;
71969;SDS011;59838;52.152;5.436;2023-09-18T07:31:41;7.85;;;6.75;;
71969;SDS011;59838;52.152;5.436;2023-09-18T07:34:09;9.52;;;6.10;;
71969;SDS011;59838;52.152;5.436;2023-09-18T07:36:39;8.50;;;6.15;;
71969;SDS011;59838;52.152;5.436;2023-09-18T07:39:06;9.50;;;6.43;;
71969;SDS011;59838;52.152;5.436;2023-09-18T07:41:32;8.85;;;6.00;;
71969;SDS011;59838;52.152;5.436;2023-09-18T07:43:59;8.25;;;6.50;;
71969;SDS011;59838;52.152;5.436;2023-09-18T07:46:26;9.38;;;6.72;;
71969;SDS011;59838;52.152;5.436;2023-09-18T07:48:52;10.13;;;6.47;;
71969;SDS011;59838;52.152;5.436;2023-09-18T07:51:19;7.53;;;6.30;;
71969;SDS011;59838;52.152;5.436;2023-09-18T07:53:46;7.47;;;5.47;;
71969;SDS011;59838;52.152;5.436;2023-09-18T07:56:12;6.78;;;6.07;;
71969;SDS011;59838;52.152;5.436;2023-09-18T07:58:39;8.18;;;5.75;;
71969;SDS011;59838;52.152;5.436;2023-09-18T08:01:06;8.82;;;5.50;;
71969;SDS011;59838;52.152;5.436;2023-09-18T08:03:32;7.93;;;4.90;;
71969;SDS011;59838;52.152;5.436;2023-09-18T08:05:59;6.00;;;5.10;;
71969;SDS011;59838;52.152;5.436;2023-09-18T08:08:26;7.55;;;4.93;;
71969;SDS011;59838;52.152;5.436;2023-09-18T08:10:53;6.75;;;4.60;;
71969;SDS011;59838;52.152;5.436;2023-09-18T08:13:19;9.77;;;5.68;;
71969;SDS011;59838;52.152;5.436;2023-09-18T08:15:47;6.33;;;4.20;;
71969;SDS011;59838;52.152;5.436;2023-09-18T08:18:14;4.78;;;4.00;;
71969;SDS011;59838;52.152;5.436;2023-09-18T08:20:41;5.38;;;3.65;;
71969;SDS011;59838;52.152;5.436;2023-09-18T08:23:09;6.93;;;4.10;;
71969;SDS011;59838;52.152;5.436;2023-09-18T08:25:36;7.32;;;4.40;;
71969;SDS011;59838;52.152;5.436;2023-09-18T08:28:03;5.93;;;3.90;;
71969;SDS011;59838;52.152;5.436;2023-09-18T08:30:34;5.57;;;3.72;;
71969;SDS011;59838;52.152;5.436;2023-09-18T08:33:03;7.22;;;3.45;;
71969;SDS011;59838;52.152;5.436;2023-09-18T08:35:29;4.13;;;3.55;;
71969;SDS011;59838;52.152;5.436;2023-09-18T08:37:57;4.47;;;3.10;;
71969;SDS011;59838;52.152;5.436;2023-09-18T08:40:24;4.67;;;2.80;;
71969;SDS011;59838;52.152;5.436;2023-09-18T08:42:51;9.25;;;4.03;;
71969;SDS011;59838;52.152;5.436;2023-09-18T08:45:25;3.63;;;2.70;;
71969;SDS011;59838;52.152;5.436;2023-09-18T08:47:56;5.57;;;3.30;;
71969;SDS011;59838;52.152;5.436;2023-09-18T08:50:25;4.32;;;3.08;;
71969;SDS011;59838;52.152;5.436;2023-09-18T08:52:52;3.97;;;2.77;;
71969;SDS011;59838;52.152;5.436;2023-09-18T08:55:19;3.20;;;2.70;;
71969;SDS011;59838;52.152;5.436;2023-09-18T08:57:46;3.67;;;2.90;;
71969;SDS011;59838;52.152;5.436;2023-09-18T09:00:14;5.07;;;3.28;;
71969;SDS011;59838;52.152;5.436;2023-09-18T09:02:44;4.22;;;2.85;;
71969;SDS011;59838;52.152;5.436;2023-09-18T09:05:11;4.40;;;2.63;;
71969;SDS011;59838;52.152;5.436;2023-09-18T09:07:39;6.70;;;3.22;;
71969;SDS011;59838;52.152;5.436;2023-09-18T09:10:05;3.00;;;2.67;;
71969;SDS011;59838;52.152;5.436;2023-09-18T09:15:25;6.72;;;3.00;;
71969;SDS011;59838;52.152;5.436;2023-09-18T09:18:06;7.00;;;2.30;;
71969;SDS011;59838;52.152;5.436;2023-09-18T09:20:35;5.53;;;2.47;;
71969;SDS011;59838;52.152;5.436;2023-09-18T09:23:04;2.90;;;2.50;;
71969;SDS011;59838;52.152;5.436;2023-09-18T09:25:35;3.70;;;2.17;;
71969;SDS011;59838;52.152;5.436;2023-09-18T09:28:03;5.82;;;2.53;;
71969;SDS011;59838;52.152;5.436;2023-09-18T09:30:32;5.30;;;2.10;;
71969;SDS011;59838;52.152;5.436;2023-09-18T09:32:59;3.95;;;1.90;;
71969;SDS011;59838;52.152;5.436;2023-09-18T09:35:30;2.70;;;2.05;;
71969;SDS011;59838;52.152;5.436;2023-09-18T09:38:01;2.95;;;2.20;;
71969;SDS011;59838;52.152;5.436;2023-09-18T09:40:35;3.13;;;1.70;;
71969;SDS011;59838;52.152;5.436;2023-09-18T09:43:07;2.57;;;2.30;;
71969;SDS011;59838;52.152;5.436;2023-09-18T09:45:35;3.65;;;2.05;;
71969;SDS011;59838;52.152;5.436;2023-09-18T09:48:03;3.05;;;2.05;;
71969;SDS011;59838;52.152;5.436;2023-09-18T09:50:33;3.00;;;2.17;;
71969;SDS011;59838;52.152;5.436;2023-09-18T09:53:12;3.05;;;2.42;;
71969;SDS011;59838;52.152;5.436;2023-09-18T09:55:40;3.47;;;2.30;;
71969;SDS011;59838;52.152;5.436;2023-09-18T09:58:08;3.53;;;2.72;;
71969;SDS011;59838;52.152;5.436;2023-09-18T10:00:45;3.92;;;3.00;;
71969;SDS011;59838;52.152;5.436;2023-09-18T10:03:16;3.25;;;2.95;;
71969;SDS011;59838;52.152;5.436;2023-09-18T10:05:45;3.88;;;2.90;;
71969;SDS011;59838;52.152;5.436;2023-09-18T10:08:23;6.97;;;3.20;;
71969;SDS011;59838;52.152;5.436;2023-09-18T10:10:54;4.60;;;3.88;;
71969;SDS011;59838;52.152;5.436;2023-09-18T10:15:58;6.07;;;3.72;;
71969;SDS011;59838;52.152;5.436;2023-09-18T10:18:38;4.72;;;3.50;;
71969;SDS011;59838;52.152;5.436;2023-09-18T10:27:01;3.05;;;2.85;;
71969;SDS011;59838;52.152;5.436;2023-09-18T10:29:32;2.88;;;2.65;;
71969;SDS011;59838;52.152;5.436;2023-09-18T10:32:02;4.13;;;2.85;;
71969;SDS011;59838;52.152;5.436;2023-09-18T10:34:30;9.87;;;3.20;;
71969;SDS011;59838;52.152;5.436;2023-09-18T10:37:00;4.82;;;3.00;;
71969;SDS011;59838;52.152;5.436;2023-09-18T10:39:35;3.58;;;3.03;;
71969;SDS011;59838;52.152;5.436;2023-09-18T10:42:04;7.90;;;3.45;;
71969;SDS011;59838;52.152;5.436;2023-09-18T10:44:33;9.10;;;4.43;;
71969;SDS011;59838;52.152;5.436;2023-09-18T10:47:01;3.97;;;3.57;;
71969;SDS011;59838;52.152;5.436;2023-09-18T10:49:31;6.30;;;4.20;;
71969;SDS011;59838;52.152;5.436;2023-09-18T10:51:58;4.40;;;3.80;;
71969;SDS011;59838;52.152;5.436;2023-09-18T10:54:27;4.20;;;3.83;;
71969;SDS011;59838;52.152;5.436;2023-09-18T10:56:55;6.40;;;4.10;;
71969;SDS011;59838;52.152;5.436;2023-09-18T10:59:23;4.43;;;4.03;;
71969;SDS011;59838;52.152;5.436;2023-09-18T11:01:50;4.85;;;4.22;;
71969;SDS011;59838;52.152;5.436;2023-09-18T11:04:20;4.85;;;4.15;;
71969;SDS011;59838;52.152;5.436;2023-09-18T11:09:20;5.00;;;4.30;;
71969;SDS011;59838;52.152;5.436;2023-09-18T11:11:51;4.17;;;3.87;;
71969;SDS011;59838;52.152;5.436;2023-09-18T11:17:55;4.50;;;3.58;;
71969;SDS011;59838;52.152;5.436;2023-09-18T11:22:47;3.70;;;3.03;;
71969;SDS011;59838;52.152;5.436;2023-09-18T11:28:15;4.57;;;3.38;;
71969;SDS011;59838;52.152;5.436;2023-09-18T11:30:50;5.00;;;2.67;;
71969;SDS011;59838;52.152;5.436;2023-09-18T11:33:29;7.22;;;3.58;;
71969;SDS011;59838;52.152;5.436;2023-09-18T11:36:07;3.63;;;2.88;;
71969;SDS011;59838;52.152;5.436;2023-09-18T11:38:51;3.73;;;2.87;;
71969;SDS011;59838;52.152;5.436;2023-09-18T11:41:25;2.78;;;2.50;;
71969;SDS011;59838;52.152;5.436;2023-09-18T11:46:44;4.65;;;2.53;;
71969;SDS011;59838;52.152;5.436;2023-09-18T11:49:14;5.85;;;2.58;;
71969;SDS011;59838;52.152;5.436;2023-09-18T11:51:45;3.70;;;2.80;;
71969;SDS011;59838;52.152;5.436;2023-09-18T11:54:13;3.83;;;2.92;;
71969;SDS011;59838;52.152;5.436;2023-09-18T11:56:41;4.55;;;2.90;;
71969;SDS011;59838;52.152;5.436;2023-09-18T11:59:08;7.18;;;3.75;;
71969;SDS011;59838;52.152;5.436;2023-09-18T12:01:36;4.72;;;4.00;;
71969;SDS011;59838;52.152;5.436;2023-09-18T12:04:06;4.43;;;3.80;;
71969;SDS011;59838;52.152;5.436;2023-09-18T12:06:38;6.43;;;3.80;;
71969;SDS011;59838;52.152;5.436;2023-09-18T12:09:06;4.03;;;3.60;;
71969;SDS011;59838;52.152;5.436;2023-09-18T12:11:33;5.43;;;4.20;;
71969;SDS011;59838;52.152;5.436;2023-09-18T12:14:08;3.50;;;3.20;;
71969;SDS011;59838;52.152;5.436;2023-09-18T12:16:38;5.27;;;2.93;;
71969;SDS011;59838;52.152;5.436;2023-09-18T12:19:05;5.13;;;3.25;;
71969;SDS011;59838;52.152;5.436;2023-09-18T12:21:40;7.55;;;2.97;;
71969;SDS011;59838;52.152;5.436;2023-09-18T12:24:12;7.15;;;2.55;;
71969;SDS011;59838;52.152;5.436;2023-09-18T12:26:40;6.10;;;3.63;;
71969;SDS011;59838;52.152;5.436;2023-09-18T12:29:07;6.20;;;2.73;;
71969;SDS011;59838;52.152;5.436;2023-09-18T12:31:35;4.20;;;2.22;;
71969;SDS011;59838;52.152;5.436;2023-09-18T12:34:02;4.15;;;2.47;;
71969;SDS011;59838;52.152;5.436;2023-09-18T12:36:28;6.15;;;2.38;;
71969;SDS011;59838;52.152;5.436;2023-09-18T12:38:57;4.75;;;2.30;;
71969;SDS011;59838;52.152;5.436;2023-09-18T12:41:24;4.23;;;2.67;;
71969;SDS011;59838;52.152;5.436;2023-09-18T12:43:58;3.65;;;2.00;;
71969;SDS011;59838;52.152;5.436;2023-09-18T12:46:25;3.28;;;2.40;;
71969;SDS011;59838;52.152;5.436;2023-09-18T12:48:52;3.83;;;2.50;;
71969;SDS011;59838;52.152;5.436;2023-09-18T12:51:18;4.22;;;2.60;;
71969;SDS011;59838;52.152;5.436;2023-09-18T12:54:01;3.57;;;2.63;;
71969;SDS011;59838;52.152;5.436;2023-09-18T12:56:34;8.65;;;2.20;;
71969;SDS011;59838;52.152;5.436;2023-09-18T12:59:06;3.95;;;2.47;;
71969;SDS011;59838;52.152;5.436;2023-09-18T13:01:45;2.67;;;2.33;;
71969;SDS011;59838;52.152;5.436;2023-09-18T13:04:13;5.97;;;2.75;;
71969;SDS011;59838;52.152;5.436;2023-09-18T13:06:40;3.87;;;2.43;;
71969;SDS011;59838;52.152;5.436;2023-09-18T13:09:16;5.15;;;2.63;;
71969;SDS011;59838;52.152;5.436;2023-09-18T13:11:55;5.85;;;2.60;;
71969;SDS011;59838;52.152;5.436;2023-09-18T13:14:26;3.85;;;2.47;;
71969;SDS011;59838;52.152;5.436;2023-09-18T13:16:53;4.32;;;1.98;;
71969;SDS011;59838;52.152;5.436;2023-09-18T13:19:30;3.80;;;2.33;;
71969;SDS011;59838;52.152;5.436;2023-09-18T13:21:57;5.85;;;2.40;;
71969;SDS011;59838;52.152;5.436;2023-09-18T13:24:30;4.15;;;2.40;;
71969;SDS011;59838;52.152;5.436;2023-09-18T13:26:57;8.05;;;2.28;;
71969;SDS011;59838;52.152;5.436;2023-09-18T13:29:27;3.30;;;2.10;;
71969;SDS011;59838;52.152;5.436;2023-09-18T13:31:54;3.03;;;1.80;;
71969;SDS011;59838;52.152;5.436;2023-09-18T13:34:20;6.35;;;2.20;;
71969;SDS011;59838;52.152;5.436;2023-09-18T13:36:48;2.20;;;1.92;;
71969;SDS011;59838;52.152;5.436;2023-09-18T13:39:14;2.80;;;1.60;;
71969;SDS011;59838;52.152;5.436;2023-09-18T13:41:44;4.07;;;1.92;;
71969;SDS011;59838;52.152;5.436;2023-09-18T13:44:11;4.87;;;1.70;;
71969;SDS011;59838;52.152;5.436;2023-09-18T13:46:37;2.10;;;1.38;;
71969;SDS011;59838;52.152;5.436;2023-09-18T13:49:04;2.40;;;1.90;;
71969;SDS011;59838;52.152;5.436;2023-09-18T13:51:31;4.72;;;1.92;;
71969;SDS011;59838;52.152;5.436;2023-09-18T13:53:58;2.92;;;1.55;;
71969;SDS011;59838;52.152;5.436;2023-09-18T13:56:25;3.00;;;1.60;;
71969;SDS011;59838;52.152;5.436;2023-09-18T13:58:55;5.53;;;1.55;;
71969;SDS011;59838;52.152;5.436;2023-09-18T14:01:22;3.38;;;1.23;;
71969;SDS011;59838;52.152;5.436;2023-09-18T14:03:52;3.67;;;1.50;;
71969;SDS011;59838;52.152;5.436;2023-09-18T14:06:18;7.22;;;1.30;;
71969;SDS011;59838;52.152;5.436;2023-09-18T14:08:45;3.63;;;1.30;;
71969;SDS011;59838;52.152;5.436;2023-09-18T14:11:12;3.83;;;1.17;;
71969;SDS011;59838;52.152;5.436;2023-09-18T14:13:40;4.60;;;1.33;;
71969;SDS011;59838;52.152;5.436;2023-09-18T14:16:07;2.95;;;1.52;;
71969;SDS011;59838;52.152;5.436;2023-09-18T14:18:35;5.15;;;1.40;;
71969;SDS011;59838;52.152;5.436;2023-09-18T14:21:02;2.73;;;0.97;;
71969;SDS011;59838;52.152;5.436;2023-09-18T14:23:29;2.25;;;0.85;;
71969;SDS011;59838;52.152;5.436;2023-09-18T14:25:56;2.25;;;1.17;;
71969;SDS011;59838;52.152;5.436;2023-09-18T14:28:22;2.15;;;1.10;;
71969;SDS011;59838;52.152;5.436;2023-09-18T14:30:49;4.00;;;1.08;;
71969;SDS011;59838;52.152;5.436;2023-09-18T14:33:15;4.57;;;1.10;;
71969;SDS011;59838;52.152;5.436;2023-09-18T14:35:42;4.05;;;0.80;;
71969;SDS011;59838;52.152;5.436;2023-09-18T14:38:09;3.28;;;1.15;;
71969;SDS011;59838;52.152;5.436;2023-09-18T14:40:36;2.33;;;1.00;;
71969;SDS011;59838;52.152;5.436;2023-09-18T14:43:02;1.60;;;0.88;;
71969;SDS011;59838;52.152;5.436;2023-09-18T14:45:31;3.07;;;1.00;;
71969;SDS011;59838;52.152;5.436;2023-09-18T14:47:57;4.93;;;1.10;;
71969;SDS011;59838;52.152;5.436;2023-09-18T14:50:25;4.03;;;0.80;;
71969;SDS011;59838;52.152;5.436;2023-09-18T14:52:51;4.70;;;1.08;;
71969;SDS011;59838;52.152;5.436;2023-09-18T14:55:18;2.20;;;0.70;;
71969;SDS011;59838;52.152;5.436;2023-09-18T14:57:45;1.63;;;0.77;;
71969;SDS011;59838;52.152;5.436;2023-09-18T15:00:11;2.55;;;1.15;;
71969;SDS011;59838;52.152;5.436;2023-09-18T15:02:39;11.88;;;2.53;;
71969;SDS011;59838;52.152;5.436;2023-09-18T15:05:06;15.25;;;4.15;;
71969;SDS011;59838;52.152;5.436;2023-09-18T15:07:35;8.68;;;2.58;;
71969;SDS011;59838;52.152;5.436;2023-09-18T15:10:02;2.73;;;1.13;;
71969;SDS011;59838;52.152;5.436;2023-09-18T15:12:31;4.32;;;1.50;;
71969;SDS011;59838;52.152;5.436;2023-09-18T15:14:58;2.92;;;1.67;;
71969;SDS011;59838;52.152;5.436;2023-09-18T15:17:24;1.63;;;1.00;;
71969;SDS011;59838;52.152;5.436;2023-09-18T15:19:51;6.15;;;2.00;;
71969;SDS011;59838;52.152;5.436;2023-09-18T15:22:21;2.93;;;0.70;;
71969;SDS011;59838;52.152;5.436;2023-09-18T15:24:48;2.45;;;0.68;;
71969;SDS011;59838;52.152;5.436;2023-09-18T15:27:14;2.15;;;0.50;;
71969;SDS011;59838;52.152;5.436;2023-09-18T15:29:41;2.67;;;0.70;;
71969;SDS011;59838;52.152;5.436;2023-09-18T15:32:07;1.90;;;0.63;;
71969;SDS011;59838;52.152;5.436;2023-09-18T15:34:34;2.27;;;0.40;;
71969;SDS011;59838;52.152;5.436;2023-09-18T15:37:01;2.33;;;0.65;;
71969;SDS011;59838;52.152;5.436;2023-09-18T15:39:30;0.80;;;0.32;;
71969;SDS011;59838;52.152;5.436;2023-09-18T15:41:59;4.63;;;0.50;;
71969;SDS011;59838;52.152;5.436;2023-09-18T15:44:25;2.97;;;0.45;;
71969;SDS011;59838;52.152;5.436;2023-09-18T15:46:52;1.00;;;0.40;;
71969;SDS011;59838;52.152;5.436;2023-09-18T15:49:18;2.53;;;0.50;;
71969;SDS011;59838;52.152;5.436;2023-09-18T15:51:45;3.05;;;0.70;;
71969;SDS011;59838;52.152;5.436;2023-09-18T15:54:12;2.33;;;0.52;;
71969;SDS011;59838;52.152;5.436;2023-09-18T15:56:38;0.88;;;0.40;;
71969;SDS011;59838;52.152;5.436;2023-09-18T15:59:07;3.07;;;0.40;;
71969;SDS011;59838;52.152;5.436;2023-09-18T16:01:34;1.48;;;0.57;;
71969;SDS011;59838;52.152;5.436;2023-09-18T16:04:03;3.10;;;0.35;;
71969;SDS011;59838;52.152;5.436;2023-09-18T16:06:30;1.83;;;0.30;;
71969;SDS011;59838;52.152;5.436;2023-09-18T16:08:57;1.38;;;0.50;;
71969;SDS011;59838;52.152;5.436;2023-09-18T16:11:26;2.50;;;0.60;;
71969;SDS011;59838;52.152;5.436;2023-09-18T16:13:53;2.13;;;0.50;;
71969;SDS011;59838;52.152;5.436;2023-09-18T16:16:22;1.45;;;0.77;;
71969;SDS011;59838;52.152;5.436;2023-09-18T16:18:48;0.98;;;0.40;;
71969;SDS011;59838;52.152;5.436;2023-09-18T16:21:16;1.83;;;0.55;;
71969;SDS011;59838;52.152;5.436;2023-09-18T16:23:42;3.70;;;0.50;;
71969;SDS011;59838;52.152;5.436;2023-09-18T16:26:09;1.42;;;0.38;;
71969;SDS011;59838;52.152;5.436;2023-09-18T16:28:36;1.50;;;0.57;;
71969;SDS011;59838;52.152;5.436;2023-09-18T16:31:03;1.10;;;0.50;;
71969;SDS011;59838;52.152;5.436;2023-09-18T16:33:33;3.10;;;0.80;;
71969;SDS011;59838;52.152;5.436;2023-09-18T16:36:00;3.53;;;0.60;;
71969;SDS011;59838;52.152;5.436;2023-09-18T16:38:26;1.50;;;0.50;;
71969;SDS011;59838;52.152;5.436;2023-09-18T16:40:53;1.35;;;0.60;;
71969;SDS011;59838;52.152;5.436;2023-09-18T16:43:19;1.45;;;0.57;;
71969;SDS011;59838;52.152;5.436;2023-09-18T16:45:47;1.45;;;0.50;;
71969;SDS011;59838;52.152;5.436;2023-09-18T16:48:14;2.43;;;0.47;;
71969;SDS011;59838;52.152;5.436;2023-09-18T16:50:41;2.85;;;0.60;;
71969;SDS011;59838;52.152;5.436;2023-09-18T16:53:07;1.95;;;0.60;;
71969;SDS011;59838;52.152;5.436;2023-09-18T16:55:34;1.80;;;0.50;;
71969;SDS011;59838;52.152;5.436;2023-09-18T16:58:01;2.10;;;0.50;;
71969;SDS011;59838;52.152;5.436;2023-09-18T17:00:27;1.87;;;0.50;;
71969;SDS011;59838;52.152;5.436;2023-09-18T17:02:54;2.42;;;0.60;;
71969;SDS011;59838;52.152;5.436;2023-09-18T17:05:21;3.28;;;1.38;;
71969;SDS011;59838;52.152;5.436;2023-09-18T17:07:47;3.22;;;0.70;;
71969;SDS011;59838;52.152;5.436;2023-09-18T17:10:16;1.70;;;0.70;;
71969;SDS011;59838;52.152;5.436;2023-09-18T17:12:44;1.40;;;0.53;;
71969;SDS011;59838;52.152;5.436;2023-09-18T17:15:10;1.63;;;0.70;;
71969;SDS011;59838;52.152;5.436;2023-09-18T17:17:37;2.45;;;1.05;;
71969;SDS011;59838;52.152;5.436;2023-09-18T17:20:05;2.67;;;0.68;;
71969;SDS011;59838;52.152;5.436;2023-09-18T17:22:33;1.50;;;0.90;;
71969;SDS011;59838;52.152;5.436;2023-09-18T17:24:59;1.67;;;0.80;;
71969;SDS011;59838;52.152;5.436;2023-09-18T17:27:26;1.35;;;0.80;;
71969;SDS011;59838;52.152;5.436;2023-09-18T17:29:54;2.75;;;1.33;;
71969;SDS011;59838;52.152;5.436;2023-09-18T17:32:25;2.28;;;1.02;;
71969;SDS011;59838;52.152;5.436;2023-09-18T17:34:52;2.53;;;1.20;;
71969;SDS011;59838;52.152;5.436;2023-09-18T17:37:19;2.40;;;1.07;;
71969;SDS011;59838;52.152;5.436;2023-09-18T17:39:46;1.70;;;0.60;;
71969;SDS011;59838;52.152;5.436;2023-09-18T17:42:12;2.10;;;0.93;;
71969;SDS011;59838;52.152;5.436;2023-09-18T17:44:39;2.67;;;1.08;;
71969;SDS011;59838;52.152;5.436;2023-09-18T17:47:06;3.92;;;1.23;;
71969;SDS011;59838;52.152;5.436;2023-09-18T17:49:32;2.90;;;1.50;;